Chase, Kansas
Current Conditions -  °F | °C
As of 9:35 AM on Thursday 30 Oct 2014 (Local Time) from KGBD Reporting Station
Clear Clear  
Wind Chill: 52°   Ceiling: Unl
Heat Index: 52°   Visibility: 10mi
Dew Point: 30°   Wind: 12mph
Humidity: 44%   Direction: 330°NNW
Pressure: 30.18"   Gusts: NA
Location:  38.36°N, 98.35°W
Report Text: KGBD 301435Z AUTO 33010KT 10SM CLR 11/M01 A3018 RMK AO1
Loading
Personal Weather Stations






























Interactive Weather Map
Tropical Storm Tracking
New forecast layout! Learn more

10-Day Weather Forecast

Advertisements
Track Severe Weather on mobile